Time;durP1;ratioP1;P1;durP2;ratioP2;P2;SDS_P1;SDS_P2;PMS_P1;PMS_P2;Temp;Humidity;BMP_temperature;BMP_pressure;BME280_temperature;BME280_humidity;BME280_pressure;Samples;Min_cycle;Max_cycle;Signal;HPM_P1;HPM_P2
2023/08/06 00:01:42;;;;;;;3.28;1.98;;;21.40;73.60;;;;;;5072730;28;20033;-64
2023/08/06 00:04:08;;;;;;;3.63;2.20;;;21.40;73.60;;;;;;5072767;28;20193;-64
2023/08/06 00:06:33;;;;;;;2.70;1.88;;;21.40;73.60;;;;;;5071291;28;20029;-64
2023/08/06 00:08:59;;;;;;;3.10;1.80;;;21.40;73.60;;;;;;5073196;28;20523;-64
2023/08/06 00:11:24;;;;;;;4.07;2.13;;;21.30;73.60;;;;;;5072938;28;20554;-64
2023/08/06 00:13:50;;;;;;;3.30;1.88;;;21.40;73.60;;;;;;5071491;28;20468;-65
2023/08/06 00:16:16;;;;;;;3.92;2.00;;;21.40;73.60;;;;;;5071862;28;20041;-64
2023/08/06 00:18:41;;;;;;;3.05;2.00;;;21.40;73.60;;;;;;5071136;28;20071;-64
2023/08/06 00:21:07;;;;;;;3.80;1.90;;;21.40;73.60;;;;;;5070777;28;20154;-64
2023/08/06 00:23:32;;;;;;;3.15;1.98;;;21.30;73.50;;;;;;5072709;28;20047;-64
2023/08/06 00:25:58;;;;;;;2.58;1.83;;;21.30;73.50;;;;;;5072684;28;20488;-64
2023/08/06 00:28:23;;;;;;;2.38;1.80;;;21.30;73.50;;;;;;5071914;28;20098;-64
2023/08/06 00:30:54;;;;;;;3.10;1.92;;;21.30;73.50;;;;;;5072220;28;20052;-64
2023/08/06 00:33:19;;;;;;;2.92;1.80;;;21.30;73.50;;;;;;5072314;28;20056;-64
2023/08/06 00:35:46;;;;;;;2.83;1.70;;;21.30;73.40;;;;;;5071413;28;20039;-64
2023/08/06 00:38:12;;;;;;;3.03;1.90;;;21.30;73.50;;;;;;5072530;28;20051;-64
2023/08/06 00:40:37;;;;;;;3.17;1.80;;;21.30;73.50;;;;;;5070998;28;20044;-64
2023/08/06 00:43:03;;;;;;;3.17;1.88;;;21.30;73.50;;;;;;5071543;28;20048;-64
2023/08/06 00:45:29;;;;;;;2.28;1.88;;;21.30;73.40;;;;;;5072447;28;20044;-64
2023/08/06 00:47:55;;;;;;;3.83;1.70;;;21.30;73.40;;;;;;5070894;28;20044;-64
2023/08/06 00:50:22;;;;;;;2.58;1.50;;;21.30;73.40;;;;;;5053383;28;20036;-64
2023/08/06 00:52:48;;;;;;;3.55;1.90;;;21.30;73.40;;;;;;5071945;28;20052;-64
2023/08/06 00:55:14;;;;;;;2.17;1.55;;;21.30;73.40;;;;;;5054704;28;20076;-64
2023/08/06 00:57:40;;;;;;;2.50;1.73;;;21.30;73.40;;;;;;5053148;28;20064;-64
2023/08/06 01:00:08;;;;;;;3.05;1.70;;;21.30;73.40;;;;;;5070787;28;20045;-64
2023/08/06 01:02:33;;;;;;;;;;;21.30;73.40;;;;;;5071819;28;20040;-64
2023/08/06 01:04:59;;;;;;;3.35;1.85;;;21.30;73.30;;;;;;5072488;28;20015;-64
2023/08/06 01:07:36;;;;;;;3.30;1.80;;;21.20;73.40;;;;;;5072196;28;20423;-64
2023/08/06 01:10:14;;;;;;;2.58;1.83;;;21.30;73.40;;;;;;5071806;28;20041;-64
2023/08/06 01:12:55;;;;;;;3.38;1.92;;;21.30;73.40;;;;;;5070637;28;20045;-64
2023/08/06 01:15:47;;;;;;;2.80;1.75;;;21.20;73.40;;;;;;5054318;28;20048;-64
2023/08/06 01:18:13;;;;;;;2.67;1.60;;;21.20;73.30;;;;;;5053810;28;20059;-64
2023/08/06 01:20:38;;;;;;;2.55;1.75;;;21.20;73.40;;;;;;5054772;28;20451;-64
2023/08/06 01:23:04;;;;;;;2.83;1.80;;;21.20;73.30;;;;;;5068087;28;20048;-64
2023/08/06 01:25:33;;;;;;;2.92;1.52;;;21.20;73.30;;;;;;5074855;28;20036;-64
2023/08/06 01:28:05;;;;;;;2.67;1.90;;;21.20;73.30;;;;;;5058517;28;20494;-64
2023/08/06 01:30:35;;;;;;;2.35;1.45;;;21.20;73.30;;;;;;5042133;28;20047;-64
2023/08/06 01:33:03;;;;;;;2.03;1.65;;;21.20;73.30;;;;;;5075102;28;20488;-64
2023/08/06 01:35:28;;;;;;;1.85;1.40;;;21.20;73.30;;;;;;5074470;28;20545;-64
2023/08/06 01:37:56;;;;;;;3.50;1.60;;;21.20;73.30;;;;;;5073519;28;20044;-64
2023/08/06 01:40:21;;;;;;;2.00;1.50;;;21.20;73.30;;;;;;5075907;28;20479;-64
2023/08/06 01:42:47;;;;;;;3.75;1.85;;;21.20;73.30;;;;;;5074374;28;20059;-64
2023/08/06 01:45:12;;;;;;;2.38;1.70;;;21.20;73.30;;;;;;5074959;28;20115;-64
2023/08/06 01:47:38;;;;;;;2.58;1.83;;;21.20;73.30;;;;;;5075251;28;20045;-64
2023/08/06 01:50:04;;;;;;;2.85;1.75;;;21.20;73.30;;;;;;5074184;28;20135;-64
2023/08/06 01:52:29;;;;;;;3.80;1.60;;;21.20;73.30;;;;;;5074396;28;20047;-64
2023/08/06 01:54:55;;;;;;;3.35;1.80;;;21.20;73.30;;;;;;5074345;28;20369;-64
2023/08/06 01:57:21;;;;;;;2.55;1.60;;;21.20;73.30;;;;;;5075315;28;20480;-64
2023/08/06 01:59:46;;;;;;;4.53;2.03;;;21.20;73.30;;;;;;5074285;28;20044;-64
2023/08/06 02:02:12;;;;;;;2.65;1.73;;;21.20;73.30;;;;;;5075303;28;20083;-64
2023/08/06 02:04:38;;;;;;;3.17;1.50;;;21.20;73.30;;;;;;5074909;28;20183;-64
2023/08/06 02:07:04;;;;;;;2.30;1.75;;;21.20;73.30;;;;;;5073180;28;20105;-64
2023/08/06 02:09:29;;;;;;;2.40;1.38;;;21.20;73.30;;;;;;5075400;28;20411;-64
2023/08/06 02:11:55;;;;;;;3.03;1.60;;;21.20;73.30;;;;;;5074968;28;20044;-64
2023/08/06 02:14:20;;;;;;;2.10;1.40;;;21.20;73.30;;;;;;5074249;28;20044;-64
2023/08/06 02:16:46;;;;;;;2.22;1.58;;;21.20;73.30;;;;;;5074767;28;20499;-64
2023/08/06 02:19:14;;;;;;;2.83;1.60;;;21.20;73.30;;;;;;5074754;28;20044;-64
2023/08/06 02:21:40;;;;;;;2.60;1.48;;;21.20;73.30;;;;;;5073488;28;20036;-64
2023/08/06 02:24:05;;;;;;;2.67;1.40;;;21.10;73.20;;;;;;5074915;28;20399;-64
2023/08/06 02:26:31;;;;;;;2.60;1.55;;;21.10;73.20;;;;;;5074232;28;20044;-64
2023/08/06 02:28:56;;;;;;;1.80;1.30;;;21.10;73.20;;;;;;5071882;28;20407;-64
2023/08/06 02:31:22;;;;;;;2.92;1.50;;;21.10;73.20;;;;;;5071744;28;20055;-64
2023/08/06 02:33:48;;;;;;;3.17;1.90;;;21.10;73.20;;;;;;5074442;28;20415;-64
2023/08/06 02:36:13;;;;;;;3.35;1.70;;;21.10;73.20;;;;;;5073673;28;20043;-64
2023/08/06 02:38:39;;;;;;;2.15;1.50;;;21.10;73.20;;;;;;5073587;28;20110;-64
2023/08/06 02:41:04;;;;;;;2.42;1.52;;;21.10;73.20;;;;;;5073802;28;20036;-64
2023/08/06 02:43:30;;;;;;;3.00;1.80;;;21.10;73.10;;;;;;5074637;28;20463;-64
2023/08/06 02:46:00;;;;;;;2.40;1.63;;;21.10;73.20;;;;;;5074130;28;20133;-64
2023/08/06 02:48:25;;;;;;;2.92;1.42;;;21.10;73.10;;;;;;5073334;28;20048;-64
2023/08/06 02:50:51;;;;;;;2.65;1.75;;;21.10;73.10;;;;;;5074178;28;20040;-64
2023/08/06 02:53:16;;;;;;;1.83;1.50;;;21.10;73.10;;;;;;5074424;28;20506;-64
2023/08/06 02:55:48;;;;;;;2.47;1.40;;;21.10;73.20;;;;;;5073564;28;20047;-64
2023/08/06 02:58:15;;;;;;;2.50;1.58;;;21.10;73.20;;;;;;5074420;28;20040;-64
2023/08/06 03:00:40;;;;;;;2.58;1.40;;;21.10;73.10;;;;;;5072306;28;20076;-64
2023/08/06 03:03:06;;;;;;;2.15;1.30;;;21.10;73.20;;;;;;5073609;28;20087;-64
2023/08/06 03:05:32;;;;;;;2.10;1.38;;;21.10;73.10;;;;;;5072883;28;20056;-64
2023/08/06 03:07:57;;;;;;;2.58;1.45;;;21.10;73.10;;;;;;5074204;28;20369;-64
2023/08/06 03:10:23;;;;;;;2.85;1.60;;;21.10;73.10;;;;;;5073371;28;20183;-64
2023/08/06 03:12:48;;;;;;;2.47;1.52;;;21.10;73.20;;;;;;5072377;28;20036;-64
2023/08/06 03:15:14;;;;;;;2.55;1.35;;;21.00;73.10;;;;;;5072004;28;20032;-63
2023/08/06 03:17:40;;;;;;;2.65;1.70;;;21.10;73.10;;;;;;5072469;28;20040;-64
2023/08/06 03:20:06;;;;;;;2.10;1.42;;;21.10;73.10;;;;;;5072570;28;20039;-63
2023/08/06 03:22:32;;;;;;;2.22;1.40;;;21.10;73.10;;;;;;5073728;28;20044;-64
2023/08/06 03:24:57;;;;;;;2.70;1.40;;;21.00;73.10;;;;;;5070747;28;20040;-63
2023/08/06 03:27:23;;;;;;;2.10;1.45;;;21.00;73.00;;;;;;5073879;28;20123;-64
2023/08/06 03:29:50;;;;;;;2.50;1.80;;;21.00;73.00;;;;;;5072244;28;20053;-63
2023/08/06 03:32:15;;;;;;;2.42;1.40;;;21.10;73.10;;;;;;5072183;28;20048;-63
2023/08/06 03:34:41;;;;;;;2.97;1.63;;;21.10;73.10;;;;;;5073289;28;20048;-64
2023/08/06 03:37:06;;;;;;;3.35;1.63;;;21.00;73.00;;;;;;5073636;28;20469;-64
2023/08/06 03:39:32;;;;;;;2.60;1.70;;;21.00;73.00;;;;;;5072222;28;20082;-63
2023/08/06 03:41:58;;;;;;;2.28;1.63;;;21.00;73.00;;;;;;5071141;28;20037;-64
2023/08/06 03:44:23;;;;;;;1.95;1.40;;;21.00;73.00;;;;;;5072593;28;20045;-64
2023/08/06 03:46:49;;;;;;;3.83;1.50;;;21.00;73.10;;;;;;5073236;28;20476;-64
2023/08/06 03:49:14;;;;;;;1.83;1.30;;;21.00;73.00;;;;;;5072921;28;20123;-64
2023/08/06 03:51:40;;;;;;;2.25;1.50;;;21.00;73.00;;;;;;5072287;28;20446;-64
2023/08/06 03:54:05;;;;;;;2.42;1.50;;;21.00;73.00;;;;;;5073358;28;20044;-64
2023/08/06 03:56:31;;;;;;;2.63;1.67;;;21.00;73.00;;;;;;5073390;28;20056;-63
2023/08/06 03:58:57;;;;;;;2.85;1.52;;;21.00;73.00;;;;;;5072095;28;20040;-63
2023/08/06 04:01:22;;;;;;;2.03;1.23;;;21.00;73.00;;;;;;5065018;28;20064;-63
2023/08/06 04:03:48;;;;;;;2.13;1.45;;;21.00;73.00;;;;;;5062361;28;20064;-64
2023/08/06 04:06:13;;;;;;;2.55;1.50;;;21.00;73.00;;;;;;5070218;28;20129;-63
2023/08/06 04:08:39;;;;;;;1.70;1.10;;;21.00;73.00;;;;;;5071972;28;20421;-64
2023/08/06 04:11:05;;;;;;;2.33;1.55;;;21.00;73.00;;;;;;5072796;28;20464;-63
2023/08/06 04:13:30;;;;;;;3.03;1.38;;;21.00;73.00;;;;;;5072021;28;20119;-63
2023/08/06 04:16:01;;;;;;;1.40;1.13;;;20.90;73.00;;;;;;5071204;28;20048;-63
2023/08/06 04:18:26;;;;;;;2.22;1.50;;;21.00;73.00;;;;;;5072744;28;20040;-63
2023/08/06 04:20:55;;;;;;;2.45;1.70;;;20.90;72.90;;;;;;5071872;28;20498;-63
2023/08/06 04:23:20;;;;;;;;;;;20.90;73.00;;;;;;5071777;28;20496;-63
2023/08/06 04:25:46;;;;;;;1.92;1.35;;;21.00;73.00;;;;;;5072700;28;19927;-63
2023/08/06 04:28:11;;;;;;;2.28;1.38;;;20.90;73.00;;;;;;5071745;28;20071;-64
2023/08/06 04:30:37;;;;;;;2.10;1.23;;;20.90;73.00;;;;;;5070907;28;20033;-64
2023/08/06 04:33:03;;;;;;;1.80;1.10;;;21.00;73.10;;;;;;5072454;28;20044;-63
2023/08/06 04:35:28;;;;;;;2.85;1.60;;;20.90;73.00;;;;;;5071796;28;20110;-64
2023/08/06 04:37:54;;;;;;;1.83;1.30;;;20.90;73.00;;;;;;5072349;28;20541;-63
2023/08/06 04:40:19;;;;;;;2.17;1.30;;;20.90;73.00;;;;;;5072379;28;20139;-64
2023/08/06 04:42:45;;;;;;;2.10;1.30;;;20.90;73.00;;;;;;5071909;28;20098;-64
2023/08/06 04:45:11;;;;;;;2.75;1.30;;;20.90;73.00;;;;;;5072804;28;20041;-63
2023/08/06 04:47:36;;;;;;;2.15;1.48;;;20.90;73.00;;;;;;5070446;28;20056;-63
2023/08/06 04:50:02;;;;;;;1.98;1.40;;;20.90;73.00;;;;;;5069878;28;20086;-63
2023/08/06 04:52:28;;;;;;;2.35;1.50;;;20.90;73.00;;;;;;5071664;28;20072;-63
2023/08/06 04:54:54;;;;;;;1.50;1.17;;;20.90;73.00;;;;;;5071349;28;20094;-63
2023/08/06 04:57:20;;;;;;;2.25;1.30;;;20.90;73.00;;;;;;5072284;28;20044;-63
2023/08/06 04:59:46;;;;;;;1.83;1.27;;;20.90;73.00;;;;;;5070519;28;20403;-63
2023/08/06 05:02:11;;;;;;;1.63;1.05;;;20.90;73.00;;;;;;5071456;28;20147;-64
2023/08/06 05:04:37;;;;;;;2.17;1.30;;;20.90;73.00;;;;;;5070671;28;20044;-64
2023/08/06 05:07:03;;;;;;;1.98;1.17;;;20.90;73.00;;;;;;5072193;28;20048;-65
2023/08/06 05:09:28;;;;;;;1.73;1.30;;;20.90;73.00;;;;;;5071597;28;20036;-63
2023/08/06 05:11:54;;;;;;;2.85;1.60;;;20.90;73.00;;;;;;5072119;28;20044;-64
2023/08/06 05:14:20;;;;;;;1.75;1.30;;;20.90;73.00;;;;;;5071161;28;20086;-63
2023/08/06 05:16:45;;;;;;;2.25;1.40;;;20.90;73.00;;;;;;5071018;28;20230;-64
2023/08/06 05:19:11;;;;;;;1.40;1.20;;;20.90;73.00;;;;;;5072407;28;20040;-63
2023/08/06 05:21:36;;;;;;;1.77;1.30;;;20.90;73.00;;;;;;5071907;28;20044;-64
2023/08/06 05:24:02;;;;;;;2.67;1.42;;;20.90;73.00;;;;;;5071449;28;20441;-63
2023/08/06 05:26:27;;;;;;;1.73;1.10;;;20.90;73.00;;;;;;5071013;28;20036;-64
2023/08/06 05:28:53;;;;;;;2.25;1.20;;;20.90;73.00;;;;;;5071989;28;20048;-63
2023/08/06 05:31:19;;;;;;;1.63;1.33;;;20.90;73.00;;;;;;5070920;28;20491;-63
2023/08/06 05:33:44;;;;;;;1.83;1.30;;;20.90;73.00;;;;;;5071582;28;20044;-63
2023/08/06 05:36:10;;;;;;;1.90;1.50;;;20.90;73.00;;;;;;5072149;28;20048;-63
2023/08/06 05:38:35;;;;;;;1.83;1.25;;;20.90;73.00;;;;;;5070756;28;20463;-63
2023/08/06 05:41:01;;;;;;;1.95;1.20;;;20.90;73.00;;;;;;5071702;28;20064;-63
2023/08/06 05:43:26;;;;;;;2.08;1.10;;;20.90;73.00;;;;;;5071773;28;20048;-64
2023/08/06 05:45:52;;;;;;;2.10;1.38;;;20.90;73.00;;;;;;5071018;28;20437;-64
2023/08/06 05:48:18;;;;;;;1.33;1.00;;;20.90;73.00;;;;;;5070796;28;20097;-63
2023/08/06 05:50:43;;;;;;;2.22;1.30;;;20.90;73.00;;;;;;5071730;28;20037;-64
2023/08/06 05:53:09;;;;;;;2.13;1.60;;;20.90;73.00;;;;;;5071240;28;20032;-63
2023/08/06 05:55:35;;;;;;;1.83;1.30;;;20.90;73.00;;;;;;5071610;28;20142;-64
2023/08/06 05:58:01;;;;;;;1.98;1.48;;;20.90;73.00;;;;;;5071105;28;20048;-64
2023/08/06 06:00:26;;;;;;;2.20;1.38;;;20.90;73.10;;;;;;5071524;28;20060;-63
2023/08/06 06:02:52;;;;;;;1.73;1.20;;;20.90;73.00;;;;;;5071737;28;20404;-63
2023/08/06 06:05:17;;;;;;;1.95;1.38;;;20.90;73.10;;;;;;5074364;28;20084;-63
2023/08/06 06:07:43;;;;;;;2.10;1.38;;;20.90;73.10;;;;;;5075105;28;20063;-63
2023/08/06 06:10:09;;;;;;;1.55;1.00;;;20.90;73.10;;;;;;5075000;28;20049;-63
2023/08/06 06:12:34;;;;;;;2.58;1.35;;;20.90;73.10;;;;;;5074472;28;20040;-63
2023/08/06 06:15:00;;;;;;;1.63;1.30;;;20.90;73.10;;;;;;5075169;28;20127;-63
2023/08/06 06:17:27;;;;;;;2.72;1.30;;;20.90;73.10;;;;;;5074987;28;20043;-63
2023/08/06 06:19:52;;;;;;;1.92;1.52;;;20.90;73.20;;;;;;5074070;28;20190;-63
2023/08/06 06:22:18;;;;;;;2.17;1.30;;;20.90;73.20;;;;;;5075044;28;20544;-63
2023/08/06 06:24:43;;;;;;;1.95;1.27;;;20.90;73.20;;;;;;5073394;28;20071;-63
2023/08/06 06:27:09;;;;;;;2.35;1.30;;;20.90;73.20;;;;;;5074101;28;20043;-63
2023/08/06 06:29:35;;;;;;;2.00;1.35;;;20.80;73.20;;;;;;5073520;28;20079;-63
2023/08/06 06:32:00;;;;;;;2.00;1.33;;;20.80;73.20;;;;;;5074373;28;20056;-63
2023/08/06 06:34:26;;;;;;;2.83;1.48;;;20.90;73.20;;;;;;5073872;28;20477;-63
2023/08/06 06:36:51;;;;;;;1.83;1.52;;;20.90;73.20;;;;;;5074486;28;20052;-63
2023/08/06 06:39:17;;;;;;;2.30;1.50;;;20.80;73.20;;;;;;5074326;28;20048;-63
2023/08/06 06:41:44;;;;;;;3.10;1.30;;;20.90;73.20;;;;;;5073554;28;20041;-63
2023/08/06 06:44:09;;;;;;;2.25;1.50;;;20.90;73.20;;;;;;5074402;28;20093;-64
2023/08/06 06:46:35;;;;;;;2.30;1.52;;;20.90;73.30;;;;;;5072782;28;20115;-64
2023/08/06 06:49:00;;;;;;;1.88;1.30;;;20.80;73.20;;;;;;5072406;28;20048;-64
2023/08/06 06:51:26;;;;;;;2.92;1.70;;;20.90;73.20;;;;;;5074481;28;20463;-64
2023/08/06 06:53:51;;;;;;;3.33;1.60;;;20.80;73.20;;;;;;5073115;28;20048;-64
2023/08/06 06:56:17;;;;;;;2.33;1.60;;;20.90;73.30;;;;;;5053998;28;20052;-64
2023/08/06 06:58:43;;;;;;;2.38;1.38;;;20.80;73.30;;;;;;5052710;28;20407;-63
2023/08/06 07:01:10;;;;;;;1.75;1.50;;;20.90;73.30;;;;;;5105031;28;20044;-63
2023/08/06 07:03:36;;;;;;;2.03;1.50;;;20.80;73.30;;;;;;5071997;28;20127;-64
2023/08/06 07:06:01;;;;;;;2.88;1.63;;;20.90;73.30;;;;;;5073584;28;20025;-62
2023/08/06 07:08:27;;;;;;;1.80;1.33;;;20.90;73.30;;;;;;5073625;28;20407;-64
2023/08/06 07:11:03;;;;;;;2.33;1.80;;;20.90;73.30;;;;;;5073742;28;20390;-64
2023/08/06 07:13:29;;;;;;;2.20;1.45;;;20.90;73.40;;;;;;5073833;28;20110;-64
2023/08/06 07:15:55;;;;;;;2.70;1.58;;;20.90;73.40;;;;;;5072396;28;20423;-64
2023/08/06 07:18:21;;;;;;;1.88;1.42;;;20.90;73.30;;;;;;5072750;28;20052;-62
2023/08/06 07:20:50;;;;;;;4.35;2.15;;;20.90;73.40;;;;;;5066197;28;20051;-63
2023/08/06 07:23:16;;;;;;;6.15;2.00;;;20.90;73.40;;;;;;5070686;28;20476;-63
2023/08/06 07:25:42;;;;;;;4.63;1.70;;;20.90;73.50;;;;;;5072949;28;20058;-63
2023/08/06 07:28:08;;;;;;;3.63;1.70;;;21.00;73.50;;;;;;5073620;28;20040;-63
2023/08/06 07:30:33;;;;;;;3.95;1.85;;;21.00;73.40;;;;;;5072393;28;20090;-63
2023/08/06 07:32:59;;;;;;;6.43;2.28;;;21.00;73.50;;;;;;5073827;28;20053;-63
2023/08/06 07:35:25;;;;;;;5.72;2.10;;;21.00;73.70;;;;;;5073521;28;20041;-63
2023/08/06 07:37:50;;;;;;;3.60;2.10;;;21.00;73.90;;;;;;5070977;28;20040;-63
2023/08/06 07:40:16;;;;;;;2.72;1.58;;;21.00;73.90;;;;;;5073267;28;20043;-63
2023/08/06 07:42:41;;;;;;;3.00;1.70;;;21.10;73.90;;;;;;5073073;28;20446;-63
2023/08/06 07:45:08;;;;;;;4.78;2.10;;;21.10;73.90;;;;;;5072055;28;20051;-64
2023/08/06 07:47:33;;;;;;;5.40;1.75;;;21.10;73.80;;;;;;5072493;28;20365;-65
2023/08/06 07:49:59;;;;;;;3.72;1.75;;;21.10;73.70;;;;;;5072852;28;20043;-64
2023/08/06 07:52:25;;;;;;;3.63;1.90;;;21.00;73.70;;;;;;5071831;28;20131;-65
2023/08/06 07:54:50;;;;;;;7.03;1.77;;;21.00;73.80;;;;;;5072194;28;20028;-65
2023/08/06 07:57:16;;;;;;;5.25;2.05;;;21.00;73.70;;;;;;5072551;28;20045;-66
2023/08/06 07:59:42;;;;;;;4.07;2.10;;;21.10;73.80;;;;;;5070122;28;20040;-64
2023/08/06 08:02:07;;;;;;;5.72;2.10;;;21.10;73.90;;;;;;5073065;28;20064;-64
2023/08/06 08:04:33;;;;;;;6.70;2.10;;;21.10;73.90;;;;;;5071626;28;20476;-64
2023/08/06 08:06:58;;;;;;;3.90;1.90;;;21.10;74.00;;;;;;5072412;28;20041;-65
2023/08/06 08:09:24;;;;;;;4.45;1.77;;;21.20;74.10;;;;;;5072445;28;20476;-64
2023/08/06 08:11:50;;;;;;;5.68;2.10;;;21.20;74.20;;;;;;5067306;28;20151;-63
2023/08/06 08:14:16;;;;;;;3.75;2.00;;;21.20;74.20;;;;;;5069969;28;20048;-63
2023/08/06 08:16:41;;;;;;;4.93;1.83;;;21.20;74.80;;;;;;5071834;28;20032;-66
2023/08/06 08:19:07;;;;;;;5.15;1.83;;;21.20;74.20;;;;;;5069271;28;20047;-65
2023/08/06 08:21:32;;;;;;;4.05;1.90;;;21.20;74.10;;;;;;5071728;28;20055;-65
2023/08/06 08:23:59;;;;;;;8.13;2.80;;;21.20;74.10;;;;;;5071838;28;20515;-65
2023/08/06 08:26:27;;;;;;;6.65;2.78;;;21.20;74.00;;;;;;5085439;28;20048;-66
2023/08/06 08:28:53;;;;;;;6.07;2.50;;;21.30;74.00;;;;;;5051860;28;20056;-63
2023/08/06 08:31:18;;;;;;;8.65;2.60;;;21.30;73.90;;;;;;5067474;28;20052;-63
2023/08/06 08:33:44;;;;;;;5.43;2.33;;;21.30;73.90;;;;;;5068208;28;20048;-64
2023/08/06 08:36:10;;;;;;;6.13;2.30;;;21.30;73.80;;;;;;5066672;28;20043;-65
2023/08/06 08:38:36;;;;;;;7.43;2.30;;;21.30;73.80;;;;;;5070120;28;20120;-64
2023/08/06 08:41:01;;;;;;;5.75;2.17;;;21.40;73.80;;;;;;5070740;28;20127;-65
2023/08/06 08:43:27;;;;;;;3.92;2.20;;;21.40;73.90;;;;;;5054118;28;20048;-65
2023/08/06 08:45:55;;;;;;;3.67;2.30;;;21.40;73.80;;;;;;5070433;28;20068;-65
2023/08/06 08:48:21;;;;;;;5.03;2.35;;;21.40;73.80;;;;;;5071206;28;20089;-66
2023/08/06 08:50:47;;;;;;;4.90;2.17;;;21.40;73.90;;;;;;5035881;28;20036;-66
2023/08/06 08:53:13;;;;;;;3.38;1.90;;;21.50;73.90;;;;;;5054178;28;20048;-65
2023/08/06 08:55:39;;;;;;;4.97;2.70;;;21.50;73.90;;;;;;5052837;28;20040;-65
2023/08/06 08:58:04;;;;;;;3.95;2.33;;;21.50;73.80;;;;;;5071794;28;20067;-65
2023/08/06 09:00:30;;;;;;;4.50;2.10;;;21.50;73.80;;;;;;5072331;28;20044;-65
2023/08/06 09:02:56;;;;;;;3.38;1.92;;;21.60;73.90;;;;;;5071409;28;20041;-72
2023/08/06 09:05:22;;;;;;;5.28;2.33;;;21.50;73.90;;;;;;5050579;28;20404;-67
2023/08/06 09:07:48;;;;;;;5.93;2.53;;;21.60;73.90;;;;;;5069352;28;20052;-64
2023/08/06 09:10:17;;;;;;;4.75;2.35;;;21.60;73.80;;;;;;5071369;28;20039;-64
2023/08/06 09:12:43;;;;;;;3.97;2.40;;;21.60;73.80;;;;;;5071824;28;20487;-66
2023/08/06 09:15:09;;;;;;;3.20;2.30;;;21.60;73.90;;;;;;5068868;28;20871;-65
2023/08/06 09:17:36;;;;;;;6.68;2.03;;;21.70;74.00;;;;;;5071615;28;20064;-65
2023/08/06 09:20:12;;;;;;;5.35;2.58;;;21.70;74.00;;;;;;5063893;28;20033;-65
2023/08/06 09:22:37;;;;;;;6.45;2.45;;;21.70;73.90;;;;;;5070765;28;20048;-66
2023/08/06 09:25:09;;;;;;;4.95;2.20;;;21.70;73.90;;;;;;5071987;28;20131;-64
2023/08/06 09:27:35;;;;;;;2.97;1.88;;;21.80;73.90;;;;;;5069875;28;20040;-66
2023/08/06 09:30:01;;;;;;;5.25;2.10;;;21.70;73.90;;;;;;5071187;28;20078;-64
2023/08/06 09:32:26;;;;;;;6.45;2.50;;;21.80;73.90;;;;;;5071768;28;20056;-64
2023/08/06 09:34:55;;;;;;;6.50;2.20;;;21.70;73.80;;;;;;5070156;28;20105;-65
2023/08/06 09:37:22;;;;;;;5.28;2.22;;;21.80;73.90;;;;;;5070258;28;20086;-64
2023/08/06 09:39:47;;;;;;;8.25;2.55;;;21.80;73.80;;;;;;5075559;28;20480;-64
2023/08/06 09:42:14;;;;;;;7.07;2.45;;;21.90;73.90;;;;;;5075559;28;20051;-63
2023/08/06 09:44:40;;;;;;;4.43;2.40;;;21.90;73.90;;;;;;5072005;28;20079;-64
2023/08/06 09:47:05;;;;;;;4.90;2.35;;;21.90;73.90;;;;;;5074580;28;20475;-65
2023/08/06 09:49:45;;;;;;;7.20;2.30;;;21.90;73.80;;;;;;5074121;28;20071;-66
2023/08/06 09:52:15;;;;;;;6.45;2.90;;;21.90;73.70;;;;;;5063569;28;20095;-68
2023/08/06 09:54:42;;;;;;;5.88;2.80;;;22.00;73.70;;;;;;5063891;28;20053;-65
2023/08/06 09:57:08;;;;;;;8.95;3.33;;;22.00;73.70;;;;;;5060167;28;20476;-65
2023/08/06 09:59:34;;;;;;;8.55;3.28;;;22.00;73.80;;;;;;5058641;28;20045;-64
2023/08/06 10:01:59;;;;;;;11.63;4.18;;;22.00;73.80;;;;;;5062639;28;20040;-64
2023/08/06 10:04:25;;;;;;;12.18;3.67;;;22.00;73.80;;;;;;5062744;28;20486;-63
2023/08/06 10:06:51;;;;;;;10.40;4.32;;;22.00;73.70;;;;;;5063831;28;20041;-64
2023/08/06 10:09:16;;;;;;;10.25;4.30;;;22.00;73.70;;;;;;5063625;28;20102;-63
2023/08/06 10:11:47;;;;;;;12.00;4.00;;;22.10;73.80;;;;;;5059086;28;20485;-63
2023/08/06 10:14:27;;;;;;;12.23;4.50;;;22.10;73.80;;;;;;5061811;28;20052;-64
2023/08/06 10:16:54;;;;;;;11.85;3.85;;;22.10;73.70;;;;;;5058775;28;20132;-63
2023/08/06 10:19:19;;;;;;;9.60;3.97;;;22.10;73.70;;;;;;5046755;28;20123;-63
2023/08/06 10:22:17;;;;;;;10.23;3.90;;;22.20;73.70;;;;;;5059586;28;20112;-64
2023/08/06 10:24:53;;;;;;;13.20;4.00;;;22.20;73.70;;;;;;5059503;28;20044;-64
2023/08/06 10:27:39;;;;;;;8.98;4.00;;;22.20;73.70;;;;;;5062783;28;20134;-64
2023/08/06 10:30:26;;;;;;;11.48;3.83;;;22.20;73.70;;;;;;5060552;28;20477;-64
2023/08/06 10:33:02;;;;;;;9.47;3.77;;;22.20;73.70;;;;;;5069740;28;20055;-65
2023/08/06 10:35:37;;;;;;;10.48;3.60;;;22.20;73.60;;;;;;5073203;28;20129;-65
2023/08/06 10:38:10;;;;;;;10.23;3.67;;;22.20;73.50;;;;;;5074468;28;20070;-65
2023/08/06 10:40:37;;;;;;;8.90;3.45;;;22.20;73.40;;;;;;5072131;28;20087;-66
2023/08/06 10:43:03;;;;;;;8.93;3.60;;;22.20;73.30;;;;;;5074593;28;20479;-66
2023/08/06 10:45:30;;;;;;;9.85;4.22;;;22.20;73.30;;;;;;5074353;28;20109;-66
2023/08/06 10:47:59;;;;;;;7.60;3.33;;;22.20;73.30;;;;;;5036008;28;20056;-66
2023/08/06 10:50:24;;;;;;;9.68;3.83;;;22.20;73.30;;;;;;5052906;28;20037;-67
2023/08/06 10:52:50;;;;;;;12.43;4.10;;;22.20;73.30;;;;;;5067729;28;20041;-67
2023/08/06 10:55:26;;;;;;;9.32;3.88;;;22.20;73.30;;;;;;5058410;28;20043;-66
2023/08/06 10:57:52;;;;;;;7.88;3.40;;;22.20;73.30;;;;;;5060925;28;20040;-67
2023/08/06 11:00:18;;;;;;;10.20;3.95;;;22.20;73.40;;;;;;5056421;28;20044;-67
2023/08/06 11:02:44;;;;;;;8.85;4.28;;;22.20;73.50;;;;;;5059803;28;20041;-67
2023/08/06 11:05:10;;;;;;;8.70;3.92;;;22.20;73.50;;;;;;5059257;28;20033;-66
2023/08/06 11:07:36;;;;;;;11.43;4.43;;;22.20;73.50;;;;;;5058829;28;20067;-66
2023/08/06 11:10:06;;;;;;;8.32;3.75;;;22.20;73.80;;;;;;5060357;28;20040;-66
2023/08/06 11:12:35;;;;;;;9.70;3.80;;;22.20;73.40;;;;;;5059544;28;20408;-65
2023/08/06 11:15:01;;;;;;;8.20;3.53;;;22.30;73.50;;;;;;5058597;28;20032;-64
2023/08/06 11:17:28;;;;;;;8.73;3.85;;;22.30;73.50;;;;;;5060632;28;20109;-65
2023/08/06 11:19:54;;;;;;;11.98;4.00;;;22.20;73.40;;;;;;5063059;28;20048;-64
2023/08/06 11:22:20;;;;;;;7.07;3.90;;;22.20;73.40;;;;;;5062366;28;20040;-66
2023/08/06 11:24:46;;;;;;;8.32;3.72;;;22.30;73.50;;;;;;5060621;28;20043;-66
2023/08/06 11:27:16;;;;;;;8.15;3.72;;;22.30;73.60;;;;;;5063971;28;20036;-66
2023/08/06 11:29:42;;;;;;;9.35;3.70;;;22.30;73.60;;;;;;5059644;28;20073;-66
2023/08/06 11:32:08;;;;;;;8.65;3.38;;;22.40;73.60;;;;;;5058877;28;20044;-66
2023/08/06 11:34:34;;;;;;;7.82;3.50;;;22.40;73.60;;;;;;5069409;28;20049;-66
2023/08/06 11:37:00;;;;;;;9.52;3.60;;;22.40;73.70;;;;;;5060161;28;20068;-66
2023/08/06 11:39:25;;;;;;;8.35;4.22;;;22.40;73.70;;;;;;5060162;28;20098;-65
2023/08/06 11:41:51;;;;;;;7.75;3.35;;;22.50;73.70;;;;;;5062596;28;20051;-66
2023/08/06 11:44:19;;;;;;;8.48;3.40;;;22.50;73.70;;;;;;5045565;28;20037;-65
2023/08/06 11:46:59;;;;;;;8.50;3.85;;;22.50;73.80;;;;;;5041463;28;20477;-64
2023/08/06 11:49:37;;;;;;;9.55;3.85;;;22.50;73.80;;;;;;5059821;28;20072;-66
2023/08/06 11:52:29;;;;;;;8.07;3.78;;;22.50;73.80;;;;;;5058959;28;20049;-66
2023/08/06 11:55:10;;;;;;;7.35;3.70;;;22.40;73.80;;;;;;5054586;28;20408;-65
2023/08/06 11:57:39;;;;;;;6.20;3.53;;;22.50;73.90;;;;;;5060301;28;20045;-67
2023/08/06 12:00:13;;;;;;;8.07;3.40;;;22.40;73.90;;;;;;5061170;28;20041;-66
2023/08/06 12:02:43;;;;;;;7.35;3.17;;;22.40;74.00;;;;;;5056852;28;20068;-72
2023/08/06 12:05:15;;;;;;;6.85;3.00;;;22.40;74.00;;;;;;5061262;28;20049;-66
2023/08/06 12:07:45;;;;;;;10.13;3.78;;;22.40;74.00;;;;;;5070221;28;20087;-67
2023/08/06 12:10:12;;;;;;;10.60;4.40;;;22.40;73.90;;;;;;5072218;28;20044;-66
2023/08/06 12:12:38;;;;;;;15.57;4.68;;;22.30;73.80;;;;;;5071564;28;20162;-66
2023/08/06 12:15:06;;;;;;;12.32;4.10;;;22.30;73.70;;;;;;5071717;28;20045;-66
2023/08/06 12:17:31;;;;;;;12.60;4.13;;;22.30;73.50;;;;;;5072408;28;20059;-66
2023/08/06 12:19:57;;;;;;;11.60;4.47;;;22.30;73.50;;;;;;5071671;28;20407;-66
2023/08/06 12:22:23;;;;;;;10.85;4.32;;;22.20;73.50;;;;;;5071401;28;20072;-67
2023/08/06 12:24:48;;;;;;;13.65;4.10;;;22.20;73.50;;;;;;5070063;28;20093;-66
2023/08/06 12:27:16;;;;;;;13.32;4.03;;;22.20;73.50;;;;;;5072197;28;20093;-66
2023/08/06 12:29:43;;;;;;;12.33;4.20;;;22.20;73.50;;;;;;5070718;28;20052;-66
2023/08/06 12:32:08;;;;;;;12.80;4.00;;;22.20;73.50;;;;;;5070354;28;20495;-66
2023/08/06 12:34:34;;;;;;;11.32;3.63;;;22.20;73.60;;;;;;5072477;28;20138;-66
2023/08/06 12:37:00;;;;;;;13.73;4.05;;;22.20;73.60;;;;;;5072252;28;20033;-66
2023/08/06 12:39:28;;;;;;;9.65;3.97;;;22.20;73.60;;;;;;5070282;28;20044;-66
2023/08/06 12:41:54;;;;;;;;;;;22.20;73.60;;;;;;5072400;28;20048;-66
2023/08/06 12:44:20;;;;;;;10.98;3.97;;;22.20;73.60;;;;;;5072654;28;19927;-66